sensor_id;sensor_type;location;lat;lon;timestamp;P1;durP1;ratioP1;P2;durP2;ratioP2
54855;SDS011;40748;53.168;5.800;2023-02-01T00:00:33;0.80;;;0.50;;
54855;SDS011;40748;53.168;5.800;2023-02-01T00:03:03;0.80;;;0.50;;
54855;SDS011;40748;53.168;5.800;2023-02-01T00:05:33;0.80;;;0.50;;
54855;SDS011;40748;53.168;5.800;2023-02-01T00:08:04;0.80;;;0.50;;
54855;SDS011;40748;53.168;5.800;2023-02-01T00:10:33;0.90;;;0.40;;
54855;SDS011;40748;53.168;5.800;2023-02-01T00:13:03;0.90;;;0.40;;
54855;SDS011;40748;53.168;5.800;2023-02-01T00:15:33;0.90;;;0.40;;
54855;SDS011;40748;53.168;5.800;2023-02-01T00:18:03;0.90;;;0.40;;
54855;SDS011;40748;53.168;5.800;2023-02-01T00:20:33;0.60;;;0.50;;
54855;SDS011;40748;53.168;5.800;2023-02-01T00:23:03;0.60;;;0.50;;
54855;SDS011;40748;53.168;5.800;2023-02-01T00:25:33;0.60;;;0.50;;
54855;SDS011;40748;53.168;5.800;2023-02-01T00:28:03;0.60;;;0.50;;
54855;SDS011;40748;53.168;5.800;2023-02-01T00:30:33;0.10;;;0.00;;
54855;SDS011;40748;53.168;5.800;2023-02-01T00:35:34;0.10;;;0.00;;
54855;SDS011;40748;53.168;5.800;2023-02-01T00:38:03;0.10;;;0.00;;
54855;SDS011;40748;53.168;5.800;2023-02-01T00:40:33;0.40;;;0.20;;
54855;SDS011;40748;53.168;5.800;2023-02-01T00:43:03;0.40;;;0.20;;
54855;SDS011;40748;53.168;5.800;2023-02-01T00:45:33;0.40;;;0.20;;
54855;SDS011;40748;53.168;5.800;2023-02-01T00:48:04;0.40;;;0.20;;
54855;SDS011;40748;53.168;5.800;2023-02-01T00:53:03;0.60;;;0.20;;
54855;SDS011;40748;53.168;5.800;2023-02-01T00:55:34;0.60;;;0.20;;
54855;SDS011;40748;53.168;5.800;2023-02-01T00:58:04;0.60;;;0.20;;
54855;SDS011;40748;53.168;5.800;2023-02-01T01:00:33;0.20;;;0.10;;
54855;SDS011;40748;53.168;5.800;2023-02-01T01:03:03;0.20;;;0.10;;
54855;SDS011;40748;53.168;5.800;2023-02-01T01:05:33;0.20;;;0.10;;
54855;SDS011;40748;53.168;5.800;2023-02-01T01:10:33;0.50;;;0.20;;
54855;SDS011;40748;53.168;5.800;2023-02-01T01:13:04;0.50;;;0.20;;
54855;SDS011;40748;53.168;5.800;2023-02-01T01:15:35;0.50;;;0.20;;
54855;SDS011;40748;53.168;5.800;2023-02-01T01:18:04;0.50;;;0.20;;
54855;SDS011;40748;53.168;5.800;2023-02-01T01:20:35;0.40;;;0.20;;
54855;SDS011;40748;53.168;5.800;2023-02-01T01:23:04;0.40;;;0.20;;
54855;SDS011;40748;53.168;5.800;2023-02-01T01:25:36;0.40;;;0.20;;
54855;SDS011;40748;53.168;5.800;2023-02-01T01:28:03;0.40;;;0.20;;
54855;SDS011;40748;53.168;5.800;2023-02-01T01:30:34;3.40;;;0.60;;
54855;SDS011;40748;53.168;5.800;2023-02-01T01:33:04;3.40;;;0.60;;
54855;SDS011;40748;53.168;5.800;2023-02-01T01:35:34;3.40;;;0.60;;
54855;SDS011;40748;53.168;5.800;2023-02-01T01:38:03;3.40;;;0.60;;
54855;SDS011;40748;53.168;5.800;2023-02-01T01:43:10;1.70;;;0.10;;
54855;SDS011;40748;53.168;5.800;2023-02-01T01:45:34;1.70;;;0.10;;
54855;SDS011;40748;53.168;5.800;2023-02-01T01:48:06;1.70;;;0.10;;
54855;SDS011;40748;53.168;5.800;2023-02-01T01:50:37;0.70;;;0.40;;
54855;SDS011;40748;53.168;5.800;2023-02-01T01:53:05;0.70;;;0.40;;
54855;SDS011;40748;53.168;5.800;2023-02-01T01:55:36;0.70;;;0.40;;
54855;SDS011;40748;53.168;5.800;2023-02-01T01:58:05;0.70;;;0.40;;
54855;SDS011;40748;53.168;5.800;2023-02-01T02:00:33;0.60;;;0.30;;
54855;SDS011;40748;53.168;5.800;2023-02-01T02:03:15;0.60;;;0.30;;
54855;SDS011;40748;53.168;5.800;2023-02-01T02:05:33;0.60;;;0.30;;
54855;SDS011;40748;53.168;5.800;2023-02-01T02:08:03;0.60;;;0.30;;
54855;SDS011;40748;53.168;5.800;2023-02-01T02:10:33;0.20;;;0.00;;
54855;SDS011;40748;53.168;5.800;2023-02-01T02:13:03;0.20;;;0.00;;
54855;SDS011;40748;53.168;5.800;2023-02-01T02:15:35;0.20;;;0.00;;
54855;SDS011;40748;53.168;5.800;2023-02-01T02:20:46;0.10;;;0.00;;
54855;SDS011;40748;53.168;5.800;2023-02-01T02:23:19;0.10;;;0.00;;
54855;SDS011;40748;53.168;5.800;2023-02-01T02:28:13;0.10;;;0.00;;
54855;SDS011;40748;53.168;5.800;2023-02-01T02:30:44;0.30;;;0.10;;
54855;SDS011;40748;53.168;5.800;2023-02-01T02:33:20;0.30;;;0.10;;
54855;SDS011;40748;53.168;5.800;2023-02-01T02:35:39;0.30;;;0.10;;
54855;SDS011;40748;53.168;5.800;2023-02-01T02:38:13;0.20;;;0.10;;
54855;SDS011;40748;53.168;5.800;2023-02-01T02:40:39;0.20;;;0.10;;
54855;SDS011;40748;53.168;5.800;2023-02-01T02:43:09;0.20;;;0.10;;
54855;SDS011;40748;53.168;5.800;2023-02-01T02:45:40;0.20;;;0.10;;
54855;SDS011;40748;53.168;5.800;2023-02-01T02:48:09;4.00;;;1.90;;
54855;SDS011;40748;53.168;5.800;2023-02-01T02:50:35;4.00;;;1.90;;
54855;SDS011;40748;53.168;5.800;2023-02-01T02:53:08;4.00;;;1.90;;
54855;SDS011;40748;53.168;5.800;2023-02-01T02:55:35;4.00;;;1.90;;
54855;SDS011;40748;53.168;5.800;2023-02-01T02:58:05;4.00;;;1.90;;
54855;SDS011;40748;53.168;5.800;2023-02-01T03:00:34;9.30;;;0.60;;
54855;SDS011;40748;53.168;5.800;2023-02-01T03:03:04;9.30;;;0.60;;
54855;SDS011;40748;53.168;5.800;2023-02-01T03:05:34;9.30;;;0.60;;
54855;SDS011;40748;53.168;5.800;2023-02-01T03:10:42;0.20;;;0.00;;
54855;SDS011;40748;53.168;5.800;2023-02-01T03:13:06;0.20;;;0.00;;
54855;SDS011;40748;53.168;5.800;2023-02-01T03:15:37;0.20;;;0.00;;
54855;SDS011;40748;53.168;5.800;2023-02-01T03:20:34;0.70;;;0.10;;
54855;SDS011;40748;53.168;5.800;2023-02-01T03:23:04;0.70;;;0.10;;
54855;SDS011;40748;53.168;5.800;2023-02-01T03:25:34;0.70;;;0.10;;
54855;SDS011;40748;53.168;5.800;2023-02-01T03:28:07;0.20;;;0.00;;
54855;SDS011;40748;53.168;5.800;2023-02-01T03:30:36;0.20;;;0.00;;
54855;SDS011;40748;53.168;5.800;2023-02-01T03:33:07;0.20;;;0.00;;
54855;SDS011;40748;53.168;5.800;2023-02-01T03:35:39;0.20;;;0.00;;
54855;SDS011;40748;53.168;5.800;2023-02-01T03:38:10;0.70;;;0.30;;
54855;SDS011;40748;53.168;5.800;2023-02-01T03:40:36;0.70;;;0.30;;
54855;SDS011;40748;53.168;5.800;2023-02-01T03:43:06;0.70;;;0.30;;
54855;SDS011;40748;53.168;5.800;2023-02-01T03:45:38;0.70;;;0.30;;
54855;SDS011;40748;53.168;5.800;2023-02-01T03:48:04;1.20;;;1.10;;
54855;SDS011;40748;53.168;5.800;2023-02-01T03:50:35;1.20;;;1.10;;
54855;SDS011;40748;53.168;5.800;2023-02-01T03:58:07;0.40;;;0.20;;
54855;SDS011;40748;53.168;5.800;2023-02-01T04:03:04;0.40;;;0.20;;
54855;SDS011;40748;53.168;5.800;2023-02-01T04:05:34;0.40;;;0.20;;
54855;SDS011;40748;53.168;5.800;2023-02-01T04:08:04;3.10;;;2.10;;
54855;SDS011;40748;53.168;5.800;2023-02-01T04:10:34;3.10;;;2.10;;
54855;SDS011;40748;53.168;5.800;2023-02-01T04:13:03;3.10;;;2.10;;
54855;SDS011;40748;53.168;5.800;2023-02-01T04:15:33;3.10;;;2.10;;
54855;SDS011;40748;53.168;5.800;2023-02-01T04:18:04;1.60;;;0.40;;
54855;SDS011;40748;53.168;5.800;2023-02-01T04:20:33;1.60;;;0.40;;
54855;SDS011;40748;53.168;5.800;2023-02-01T04:23:04;1.60;;;0.40;;
54855;SDS011;40748;53.168;5.800;2023-02-01T04:25:33;1.60;;;0.40;;
54855;SDS011;40748;53.168;5.800;2023-02-01T04:28:03;0.20;;;0.10;;
54855;SDS011;40748;53.168;5.800;2023-02-01T04:30:33;0.20;;;0.10;;
54855;SDS011;40748;53.168;5.800;2023-02-01T04:33:03;0.20;;;0.10;;
54855;SDS011;40748;53.168;5.800;2023-02-01T04:38:03;0.80;;;0.30;;
54855;SDS011;40748;53.168;5.800;2023-02-01T04:40:33;0.80;;;0.30;;
54855;SDS011;40748;53.168;5.800;2023-02-01T04:43:03;0.80;;;0.30;;
54855;SDS011;40748;53.168;5.800;2023-02-01T04:45:33;0.80;;;0.30;;
54855;SDS011;40748;53.168;5.800;2023-02-01T04:48:04;1.60;;;0.50;;
54855;SDS011;40748;53.168;5.800;2023-02-01T04:50:34;1.60;;;0.50;;
54855;SDS011;40748;53.168;5.800;2023-02-01T04:53:03;1.60;;;0.50;;
54855;SDS011;40748;53.168;5.800;2023-02-01T04:55:33;1.60;;;0.50;;
54855;SDS011;40748;53.168;5.800;2023-02-01T04:58:03;6.00;;;1.30;;
54855;SDS011;40748;53.168;5.800;2023-02-01T05:00:34;6.00;;;1.30;;
54855;SDS011;40748;53.168;5.800;2023-02-01T05:03:03;6.00;;;1.30;;
54855;SDS011;40748;53.168;5.800;2023-02-01T05:05:33;6.00;;;1.30;;
54855;SDS011;40748;53.168;5.800;2023-02-01T05:08:04;0.20;;;0.00;;
54855;SDS011;40748;53.168;5.800;2023-02-01T05:13:03;0.20;;;0.00;;
54855;SDS011;40748;53.168;5.800;2023-02-01T05:15:33;0.20;;;0.00;;
54855;SDS011;40748;53.168;5.800;2023-02-01T05:18:03;0.40;;;0.20;;
54855;SDS011;40748;53.168;5.800;2023-02-01T05:20:34;0.40;;;0.20;;
54855;SDS011;40748;53.168;5.800;2023-02-01T05:23:04;0.40;;;0.20;;
54855;SDS011;40748;53.168;5.800;2023-02-01T05:25:33;0.40;;;0.20;;
54855;SDS011;40748;53.168;5.800;2023-02-01T05:33:04;2.50;;;0.20;;
54855;SDS011;40748;53.168;5.800;2023-02-01T05:35:33;2.50;;;0.20;;
54855;SDS011;40748;53.168;5.800;2023-02-01T05:38:03;0.10;;;0.00;;
54855;SDS011;40748;53.168;5.800;2023-02-01T05:40:33;0.10;;;0.00;;
54855;SDS011;40748;53.168;5.800;2023-02-01T05:43:03;0.10;;;0.00;;
54855;SDS011;40748;53.168;5.800;2023-02-01T05:45:33;0.10;;;0.00;;
54855;SDS011;40748;53.168;5.800;2023-02-01T05:48:04;0.40;;;0.10;;
54855;SDS011;40748;53.168;5.800;2023-02-01T05:50:33;0.40;;;0.10;;
54855;SDS011;40748;53.168;5.800;2023-02-01T05:53:05;0.40;;;0.10;;
54855;SDS011;40748;53.168;5.800;2023-02-01T05:55:33;0.40;;;0.10;;
54855;SDS011;40748;53.168;5.800;2023-02-01T05:58:04;4.20;;;1.20;;
54855;SDS011;40748;53.168;5.800;2023-02-01T06:00:34;4.20;;;1.20;;
54855;SDS011;40748;53.168;5.800;2023-02-01T06:03:03;4.20;;;1.20;;
54855;SDS011;40748;53.168;5.800;2023-02-01T06:05:33;4.20;;;1.20;;
54855;SDS011;40748;53.168;5.800;2023-02-01T06:08:03;0.10;;;0.00;;
54855;SDS011;40748;53.168;5.800;2023-02-01T06:10:34;0.10;;;0.00;;
54855;SDS011;40748;53.168;5.800;2023-02-01T06:13:04;0.10;;;0.00;;
54855;SDS011;40748;53.168;5.800;2023-02-01T06:15:34;0.10;;;0.00;;
54855;SDS011;40748;53.168;5.800;2023-02-01T06:18:04;0.10;;;0.00;;
54855;SDS011;40748;53.168;5.800;2023-02-01T06:20:33;0.10;;;0.00;;
54855;SDS011;40748;53.168;5.800;2023-02-01T06:23:04;0.10;;;0.00;;
54855;SDS011;40748;53.168;5.800;2023-02-01T06:25:34;0.10;;;0.00;;
54855;SDS011;40748;53.168;5.800;2023-02-01T06:28:03;0.20;;;0.00;;
54855;SDS011;40748;53.168;5.800;2023-02-01T06:30:33;0.20;;;0.00;;
54855;SDS011;40748;53.168;5.800;2023-02-01T06:33:03;0.20;;;0.00;;
54855;SDS011;40748;53.168;5.800;2023-02-01T06:35:34;0.20;;;0.00;;
54855;SDS011;40748;53.168;5.800;2023-02-01T06:38:03;0.40;;;0.20;;
54855;SDS011;40748;53.168;5.800;2023-02-01T06:40:33;0.40;;;0.20;;
54855;SDS011;40748;53.168;5.800;2023-02-01T06:45:33;0.40;;;0.20;;
54855;SDS011;40748;53.168;5.800;2023-02-01T06:48:04;1.80;;;0.70;;
54855;SDS011;40748;53.168;5.800;2023-02-01T06:50:33;1.80;;;0.70;;
54855;SDS011;40748;53.168;5.800;2023-02-01T06:53:03;1.80;;;0.70;;
54855;SDS011;40748;53.168;5.800;2023-02-01T06:55:33;1.80;;;0.70;;
54855;SDS011;40748;53.168;5.800;2023-02-01T06:58:03;2.60;;;0.30;;
54855;SDS011;40748;53.168;5.800;2023-02-01T07:03:03;2.60;;;0.30;;
54855;SDS011;40748;53.168;5.800;2023-02-01T07:05:33;2.60;;;0.30;;
54855;SDS011;40748;53.168;5.800;2023-02-01T07:08:04;0.30;;;0.10;;
54855;SDS011;40748;53.168;5.800;2023-02-01T07:13:04;0.30;;;0.10;;
54855;SDS011;40748;53.168;5.800;2023-02-01T07:15:34;0.30;;;0.10;;
54855;SDS011;40748;53.168;5.800;2023-02-01T07:18:04;0.60;;;0.30;;
54855;SDS011;40748;53.168;5.800;2023-02-01T07:20:33;0.60;;;0.30;;
54855;SDS011;40748;53.168;5.800;2023-02-01T07:23:03;0.60;;;0.30;;
54855;SDS011;40748;53.168;5.800;2023-02-01T07:25:34;0.60;;;0.30;;
54855;SDS011;40748;53.168;5.800;2023-02-01T07:28:04;1.00;;;0.70;;
54855;SDS011;40748;53.168;5.800;2023-02-01T07:30:33;1.00;;;0.70;;
54855;SDS011;40748;53.168;5.800;2023-02-01T07:33:03;1.00;;;0.70;;
54855;SDS011;40748;53.168;5.800;2023-02-01T07:35:34;1.00;;;0.70;;
54855;SDS011;40748;53.168;5.800;2023-02-01T07:38:03;0.30;;;0.10;;
54855;SDS011;40748;53.168;5.800;2023-02-01T07:40:34;0.30;;;0.10;;
54855;SDS011;40748;53.168;5.800;2023-02-01T07:43:03;0.30;;;0.10;;
54855;SDS011;40748;53.168;5.800;2023-02-01T07:45:34;0.30;;;0.10;;
54855;SDS011;40748;53.168;5.800;2023-02-01T07:48:04;2.00;;;0.70;;
54855;SDS011;40748;53.168;5.800;2023-02-01T07:53:03;2.00;;;0.70;;
54855;SDS011;40748;53.168;5.800;2023-02-01T07:55:34;2.00;;;0.70;;
54855;SDS011;40748;53.168;5.800;2023-02-01T07:58:04;1.80;;;0.30;;
54855;SDS011;40748;53.168;5.800;2023-02-01T08:00:33;1.80;;;0.30;;
54855;SDS011;40748;53.168;5.800;2023-02-01T08:03:04;1.80;;;0.30;;
54855;SDS011;40748;53.168;5.800;2023-02-01T08:05:33;1.80;;;0.30;;
54855;SDS011;40748;53.168;5.800;2023-02-01T08:08:04;0.60;;;0.60;;
54855;SDS011;40748;53.168;5.800;2023-02-01T08:10:34;0.60;;;0.60;;
54855;SDS011;40748;53.168;5.800;2023-02-01T08:13:04;0.60;;;0.60;;
54855;SDS011;40748;53.168;5.800;2023-02-01T08:15:33;0.60;;;0.60;;
54855;SDS011;40748;53.168;5.800;2023-02-01T08:18:03;0.20;;;0.00;;
54855;SDS011;40748;53.168;5.800;2023-02-01T08:20:33;0.20;;;0.00;;
54855;SDS011;40748;53.168;5.800;2023-02-01T08:23:07;0.20;;;0.00;;
54855;SDS011;40748;53.168;5.800;2023-02-01T08:25:33;0.20;;;0.00;;
54855;SDS011;40748;53.168;5.800;2023-02-01T08:28:04;0.30;;;0.10;;
54855;SDS011;40748;53.168;5.800;2023-02-01T08:30:34;0.30;;;0.10;;
54855;SDS011;40748;53.168;5.800;2023-02-01T08:33:04;0.30;;;0.10;;
54855;SDS011;40748;53.168;5.800;2023-02-01T08:35:35;0.30;;;0.10;;
54855;SDS011;40748;53.168;5.800;2023-02-01T08:38:04;0.70;;;0.20;;
54855;SDS011;40748;53.168;5.800;2023-02-01T08:40:34;0.70;;;0.20;;
54855;SDS011;40748;53.168;5.800;2023-02-01T08:43:04;0.70;;;0.20;;
54855;SDS011;40748;53.168;5.800;2023-02-01T08:45:33;0.70;;;0.20;;
54855;SDS011;40748;53.168;5.800;2023-02-01T08:50:33;3.20;;;0.80;;
54855;SDS011;40748;53.168;5.800;2023-02-01T08:53:03;3.20;;;0.80;;
54855;SDS011;40748;53.168;5.800;2023-02-01T08:55:33;3.20;;;0.80;;
54855;SDS011;40748;53.168;5.800;2023-02-01T08:58:04;0.70;;;0.40;;
54855;SDS011;40748;53.168;5.800;2023-02-01T09:00:33;0.70;;;0.40;;
54855;SDS011;40748;53.168;5.800;2023-02-01T09:03:04;0.70;;;0.40;;
54855;SDS011;40748;53.168;5.800;2023-02-01T09:05:33;0.70;;;0.40;;
54855;SDS011;40748;53.168;5.800;2023-02-01T09:08:05;0.40;;;0.20;;
54855;SDS011;40748;53.168;5.800;2023-02-01T09:10:34;0.40;;;0.20;;
54855;SDS011;40748;53.168;5.800;2023-02-01T09:13:04;0.40;;;0.20;;
54855;SDS011;40748;53.168;5.800;2023-02-01T09:15:34;0.40;;;0.20;;
54855;SDS011;40748;53.168;5.800;2023-02-01T09:18:03;0.70;;;0.40;;
54855;SDS011;40748;53.168;5.800;2023-02-01T09:20:34;0.70;;;0.40;;
54855;SDS011;40748;53.168;5.800;2023-02-01T09:23:03;0.70;;;0.40;;
54855;SDS011;40748;53.168;5.800;2023-02-01T09:25:33;0.70;;;0.40;;
54855;SDS011;40748;53.168;5.800;2023-02-01T09:28:04;1.40;;;0.70;;
54855;SDS011;40748;53.168;5.800;2023-02-01T09:30:34;1.40;;;0.70;;
54855;SDS011;40748;53.168;5.800;2023-02-01T09:38:04;1.00;;;0.60;;
54855;SDS011;40748;53.168;5.800;2023-02-01T09:40:34;1.00;;;0.60;;
54855;SDS011;40748;53.168;5.800;2023-02-01T09:43:17;1.00;;;0.60;;
54855;SDS011;40748;53.168;5.800;2023-02-01T09:45:42;1.00;;;0.60;;
54855;SDS011;40748;53.168;5.800;2023-02-01T09:48:11;3.00;;;0.70;;
54855;SDS011;40748;53.168;5.800;2023-02-01T09:50:36;3.00;;;0.70;;
54855;SDS011;40748;53.168;5.800;2023-02-01T09:53:06;3.00;;;0.70;;
54855;SDS011;40748;53.168;5.800;2023-02-01T09:55:37;3.00;;;0.70;;
54855;SDS011;40748;53.168;5.800;2023-02-01T09:58:06;0.20;;;0.00;;
54855;SDS011;40748;53.168;5.800;2023-02-01T10:00:35;0.20;;;0.00;;
54855;SDS011;40748;53.168;5.800;2023-02-01T10:05:47;0.20;;;0.00;;
54855;SDS011;40748;53.168;5.800;2023-02-01T10:08:10;0.40;;;0.30;;
54855;SDS011;40748;53.168;5.800;2023-02-01T10:10:40;0.40;;;0.30;;
54855;SDS011;40748;53.168;5.800;2023-02-01T10:13:12;0.40;;;0.30;;
54855;SDS011;40748;53.168;5.800;2023-02-01T10:15:48;0.40;;;0.30;;
54855;SDS011;40748;53.168;5.800;2023-02-01T10:18:16;1.60;;;0.90;;
54855;SDS011;40748;53.168;5.800;2023-02-01T10:20:47;1.60;;;0.90;;
54855;SDS011;40748;53.168;5.800;2023-02-01T10:23:09;1.60;;;0.90;;
54855;SDS011;40748;53.168;5.800;2023-02-01T10:25:36;1.60;;;0.90;;
54855;SDS011;40748;53.168;5.800;2023-02-01T10:28:04;0.20;;;0.10;;
54855;SDS011;40748;53.168;5.800;2023-02-01T10:30:40;0.20;;;0.10;;
54855;SDS011;40748;53.168;5.800;2023-02-01T10:33:15;0.20;;;0.10;;
54855;SDS011;40748;53.168;5.800;2023-02-01T10:35:36;0.20;;;0.10;;
54855;SDS011;40748;53.168;5.800;2023-02-01T10:38:07;0.40;;;0.20;;
54855;SDS011;40748;53.168;5.800;2023-02-01T10:40:34;0.40;;;0.20;;
54855;SDS011;40748;53.168;5.800;2023-02-01T10:43:04;0.40;;;0.20;;
54855;SDS011;40748;53.168;5.800;2023-02-01T10:45:34;0.40;;;0.20;;
54855;SDS011;40748;53.168;5.800;2023-02-01T10:48:04;0.90;;;0.70;;
54855;SDS011;40748;53.168;5.800;2023-02-01T10:50:37;0.90;;;0.70;;
54855;SDS011;40748;53.168;5.800;2023-02-01T10:53:09;0.90;;;0.70;;
54855;SDS011;40748;53.168;5.800;2023-02-01T10:55:38;0.90;;;0.70;;
54855;SDS011;40748;53.168;5.800;2023-02-01T10:58:05;0.10;;;0.00;;
54855;SDS011;40748;53.168;5.800;2023-02-01T11:00:41;0.10;;;0.00;;
54855;SDS011;40748;53.168;5.800;2023-02-01T11:03:21;0.10;;;0.00;;
54855;SDS011;40748;53.168;5.800;2023-02-01T11:05:43;0.10;;;0.00;;
54855;SDS011;40748;53.168;5.800;2023-02-01T11:08:04;0.50;;;0.40;;
54855;SDS011;40748;53.168;5.800;2023-02-01T11:10:36;0.50;;;0.40;;
54855;SDS011;40748;53.168;5.800;2023-02-01T11:13:05;0.50;;;0.40;;
54855;SDS011;40748;53.168;5.800;2023-02-01T11:15:33;0.50;;;0.40;;
54855;SDS011;40748;53.168;5.800;2023-02-01T11:18:15;0.20;;;0.10;;
54855;SDS011;40748;53.168;5.800;2023-02-01T11:20:38;0.20;;;0.10;;
54855;SDS011;40748;53.168;5.800;2023-02-01T11:25:36;0.20;;;0.10;;
54855;SDS011;40748;53.168;5.800;2023-02-01T11:28:04;0.10;;;0.00;;
54855;SDS011;40748;53.168;5.800;2023-02-01T11:30:36;0.10;;;0.00;;
54855;SDS011;40748;53.168;5.800;2023-02-01T11:33:05;0.10;;;0.00;;
54855;SDS011;40748;53.168;5.800;2023-02-01T11:35:37;0.10;;;0.00;;
54855;SDS011;40748;53.168;5.800;2023-02-01T11:38:11;2.10;;;1.10;;
54855;SDS011;40748;53.168;5.800;2023-02-01T11:40:35;2.10;;;1.10;;
54855;SDS011;40748;53.168;5.800;2023-02-01T11:43:08;2.10;;;1.10;;
54855;SDS011;40748;53.168;5.800;2023-02-01T11:45:34;2.10;;;1.10;;
54855;SDS011;40748;53.168;5.800;2023-02-01T11:48:08;1.80;;;0.90;;
54855;SDS011;40748;53.168;5.800;2023-02-01T11:50:37;1.80;;;0.90;;
54855;SDS011;40748;53.168;5.800;2023-02-01T11:53:19;1.80;;;0.90;;
54855;SDS011;40748;53.168;5.800;2023-02-01T11:55:42;1.80;;;0.90;;
54855;SDS011;40748;53.168;5.800;2023-02-01T11:58:16;1.40;;;0.70;;
54855;SDS011;40748;53.168;5.800;2023-02-01T12:00:49;1.40;;;0.70;;
54855;SDS011;40748;53.168;5.800;2023-02-01T12:03:18;1.40;;;0.70;;
54855;SDS011;40748;53.168;5.800;2023-02-01T12:05:41;1.40;;;0.70;;
54855;SDS011;40748;53.168;5.800;2023-02-01T12:08:18;2.00;;;0.30;;
54855;SDS011;40748;53.168;5.800;2023-02-01T12:13:14;2.00;;;0.30;;
54855;SDS011;40748;53.168;5.800;2023-02-01T12:15:45;2.00;;;0.30;;
54855;SDS011;40748;53.168;5.800;2023-02-01T12:18:21;2.50;;;1.00;;
54855;SDS011;40748;53.168;5.800;2023-02-01T12:23:17;2.50;;;1.00;;
54855;SDS011;40748;53.168;5.800;2023-02-01T12:25:43;2.50;;;1.00;;
54855;SDS011;40748;53.168;5.800;2023-02-01T12:28:16;0.50;;;0.40;;
54855;SDS011;40748;53.168;5.800;2023-02-01T12:30:47;0.50;;;0.40;;
54855;SDS011;40748;53.168;5.800;2023-02-01T12:33:08;0.50;;;0.40;;
54855;SDS011;40748;53.168;5.800;2023-02-01T12:35:44;0.50;;;0.40;;
54855;SDS011;40748;53.168;5.800;2023-02-01T12:38:17;0.40;;;0.20;;
54855;SDS011;40748;53.168;5.800;2023-02-01T12:40:43;0.40;;;0.20;;
54855;SDS011;40748;53.168;5.800;2023-02-01T12:43:09;0.40;;;0.20;;
54855;SDS011;40748;53.168;5.800;2023-02-01T12:45:39;0.40;;;0.20;;
54855;SDS011;40748;53.168;5.800;2023-02-01T12:48:18;0.50;;;0.20;;
54855;SDS011;40748;53.168;5.800;2023-02-01T12:50:41;0.50;;;0.20;;
54855;SDS011;40748;53.168;5.800;2023-02-01T12:53:09;0.50;;;0.20;;
54855;SDS011;40748;53.168;5.800;2023-02-01T12:55:36;0.50;;;0.20;;
54855;SDS011;40748;53.168;5.800;2023-02-01T12:58:08;3.30;;;1.20;;
54855;SDS011;40748;53.168;5.800;2023-02-01T13:00:38;3.30;;;1.20;;
54855;SDS011;40748;53.168;5.800;2023-02-01T13:03:13;3.30;;;1.20;;
54855;SDS011;40748;53.168;5.800;2023-02-01T13:05:43;3.30;;;1.20;;
54855;SDS011;40748;53.168;5.800;2023-02-01T13:08:08;0.20;;;0.00;;
54855;SDS011;40748;53.168;5.800;2023-02-01T13:10:38;0.20;;;0.00;;
54855;SDS011;40748;53.168;5.800;2023-02-01T13:13:10;0.20;;;0.00;;
54855;SDS011;40748;53.168;5.800;2023-02-01T13:18:05;3.00;;;1.80;;
54855;SDS011;40748;53.168;5.800;2023-02-01T13:20:39;3.00;;;1.80;;
54855;SDS011;40748;53.168;5.800;2023-02-01T13:23:09;3.00;;;1.80;;
54855;SDS011;40748;53.168;5.800;2023-02-01T13:25:37;3.00;;;1.80;;
54855;SDS011;40748;53.168;5.800;2023-02-01T13:28:07;3.40;;;0.70;;
54855;SDS011;40748;53.168;5.800;2023-02-01T13:30:44;3.40;;;0.70;;
54855;SDS011;40748;53.168;5.800;2023-02-01T13:35:48;3.40;;;0.70;;
54855;SDS011;40748;53.168;5.800;2023-02-01T13:38:21;5.30;;;0.50;;
54855;SDS011;40748;53.168;5.800;2023-02-01T13:40:38;5.30;;;0.50;;
54855;SDS011;40748;53.168;5.800;2023-02-01T13:43:11;5.30;;;0.50;;
54855;SDS011;40748;53.168;5.800;2023-02-01T13:45:36;5.30;;;0.50;;
54855;SDS011;40748;53.168;5.800;2023-02-01T13:48:06;0.70;;;0.50;;
54855;SDS011;40748;53.168;5.800;2023-02-01T13:50:36;0.70;;;0.50;;
54855;SDS011;40748;53.168;5.800;2023-02-01T13:53:13;0.70;;;0.50;;
54855;SDS011;40748;53.168;5.800;2023-02-01T13:55:36;0.70;;;0.50;;
54855;SDS011;40748;53.168;5.800;2023-02-01T13:58:14;4.30;;;1.40;;
54855;SDS011;40748;53.168;5.800;2023-02-01T14:00:35;4.30;;;1.40;;
54855;SDS011;40748;53.168;5.800;2023-02-01T14:03:14;4.30;;;1.40;;
54855;SDS011;40748;53.168;5.800;2023-02-01T14:08:11;0.40;;;0.20;;
54855;SDS011;40748;53.168;5.800;2023-02-01T14:10:47;0.40;;;0.20;;
54855;SDS011;40748;53.168;5.800;2023-02-01T14:13:04;0.40;;;0.20;;
54855;SDS011;40748;53.168;5.800;2023-02-01T14:15:36;0.40;;;0.20;;
54855;SDS011;40748;53.168;5.800;2023-02-01T14:20:40;1.50;;;0.90;;
54855;SDS011;40748;53.168;5.800;2023-02-01T14:23:04;1.50;;;0.90;;
54855;SDS011;40748;53.168;5.800;2023-02-01T14:25:34;1.50;;;0.90;;
54855;SDS011;40748;53.168;5.800;2023-02-01T14:28:11;0.20;;;0.10;;
54855;SDS011;40748;53.168;5.800;2023-02-01T14:30:37;0.20;;;0.10;;
54855;SDS011;40748;53.168;5.800;2023-02-01T14:33:11;0.20;;;0.10;;
54855;SDS011;40748;53.168;5.800;2023-02-01T14:35:34;0.20;;;0.10;;
54855;SDS011;40748;53.168;5.800;2023-02-01T14:38:04;1.30;;;0.90;;
54855;SDS011;40748;53.168;5.800;2023-02-01T14:40:34;1.30;;;0.90;;
54855;SDS011;40748;53.168;5.800;2023-02-01T14:43:04;1.30;;;0.90;;
54855;SDS011;40748;53.168;5.800;2023-02-01T14:45:48;1.30;;;0.90;;
54855;SDS011;40748;53.168;5.800;2023-02-01T14:50:35;2.20;;;0.60;;
54855;SDS011;40748;53.168;5.800;2023-02-01T14:53:14;2.20;;;0.60;;
54855;SDS011;40748;53.168;5.800;2023-02-01T14:55:38;2.20;;;0.60;;
54855;SDS011;40748;53.168;5.800;2023-02-01T14:58:14;0.40;;;0.20;;
54855;SDS011;40748;53.168;5.800;2023-02-01T15:00:34;0.40;;;0.20;;
54855;SDS011;40748;53.168;5.800;2023-02-01T15:03:19;0.40;;;0.20;;
54855;SDS011;40748;53.168;5.800;2023-02-01T15:05:34;0.40;;;0.20;;
54855;SDS011;40748;53.168;5.800;2023-02-01T15:08:11;0.20;;;0.10;;
54855;SDS011;40748;53.168;5.800;2023-02-01T15:10:42;0.20;;;0.10;;
54855;SDS011;40748;53.168;5.800;2023-02-01T15:13:04;0.20;;;0.10;;
54855;SDS011;40748;53.168;5.800;2023-02-01T15:15:34;0.20;;;0.10;;
54855;SDS011;40748;53.168;5.800;2023-02-01T15:18:04;0.60;;;0.20;;
54855;SDS011;40748;53.168;5.800;2023-02-01T15:20:34;0.60;;;0.20;;
54855;SDS011;40748;53.168;5.800;2023-02-01T15:25:36;0.60;;;0.20;;
54855;SDS011;40748;53.168;5.800;2023-02-01T15:28:04;0.20;;;0.10;;
54855;SDS011;40748;53.168;5.800;2023-02-01T15:33:07;0.20;;;0.10;;
54855;SDS011;40748;53.168;5.800;2023-02-01T15:35:37;0.20;;;0.10;;
54855;SDS011;40748;53.168;5.800;2023-02-01T15:38:27;1.00;;;0.90;;
54855;SDS011;40748;53.168;5.800;2023-02-01T15:40:34;1.00;;;0.90;;
54855;SDS011;40748;53.168;5.800;2023-02-01T15:43:04;1.00;;;0.90;;
54855;SDS011;40748;53.168;5.800;2023-02-01T15:45:34;1.00;;;0.90;;
54855;SDS011;40748;53.168;5.800;2023-02-01T15:48:04;1.50;;;0.60;;
54855;SDS011;40748;53.168;5.800;2023-02-01T15:50:39;1.50;;;0.60;;
54855;SDS011;40748;53.168;5.800;2023-02-01T15:53:04;1.50;;;0.60;;
54855;SDS011;40748;53.168;5.800;2023-02-01T15:55:36;1.50;;;0.60;;
54855;SDS011;40748;53.168;5.800;2023-02-01T15:58:05;0.40;;;0.20;;
54855;SDS011;40748;53.168;5.800;2023-02-01T16:00:42;0.40;;;0.20;;
54855;SDS011;40748;53.168;5.800;2023-02-01T16:03:24;0.40;;;0.20;;
54855;SDS011;40748;53.168;5.800;2023-02-01T16:05:37;0.40;;;0.20;;
54855;SDS011;40748;53.168;5.800;2023-02-01T16:08:10;0.40;;;0.10;;
54855;SDS011;40748;53.168;5.800;2023-02-01T16:10:39;0.40;;;0.10;;
54855;SDS011;40748;53.168;5.800;2023-02-01T16:15:34;0.40;;;0.10;;
54855;SDS011;40748;53.168;5.800;2023-02-01T16:18:04;0.80;;;0.60;;
54855;SDS011;40748;53.168;5.800;2023-02-01T16:20:34;0.80;;;0.60;;
54855;SDS011;40748;53.168;5.800;2023-02-01T16:23:05;0.80;;;0.60;;
54855;SDS011;40748;53.168;5.800;2023-02-01T16:25:34;0.80;;;0.60;;
54855;SDS011;40748;53.168;5.800;2023-02-01T16:28:04;1.30;;;1.10;;